Marine Rescue Pd30 — PD30 — position and weather

sailwx.info

Track history (hours):
 
Tides and Currents Weather Stations Pressure Air Temp Water Temp Dewpoint Dewpoint Depression Visibility Wind Speed Wind Dir Waves Ship Positions

Marine Rescue Pd30

Last reported at 2018-Feb-18 23:27 UTC. Time now 2018-Feb-20 12:14 UTC.
Position S 28°11' E 153°33'.

Length 10 m.

Type: SAR. MMSI: 503558900.

Date/timePositionNaut miles runAvg speedWind from/ knotsBaromVisibWave heightAir tempDewpointWater temp
2018-Feb-18 23:27S 28°11' E 153°33'0 0.0
2018-Feb-17 23:31S 28°11' E 153°33'0 0.0
2018-Feb-17 23:30S 28°11' E 153°33'0 0.0
2018-Feb-17 23:01S 28°11' E 153°33'0 0.8
2018-Feb-17 22:30S 28°11' E 153°33'1 2.6
2018-Feb-17 22:00S 28°12' E 153°34'2 4.9
2018-Feb-17 21:30S 28°14' E 153°33'4 8.2
2018-Feb-17 21:00S 28°10' E 153°33'1 1.2
2018-Feb-17 20:30S 28°11' E 153°33'0 0.0
2018-Feb-16 20:19S 28°11' E 153°33'0 0.0
2018-Feb-16 20:00S 28°11' E 153°33'  
2018-Feb-10 22:04S 28°11' E 153°33'0 0.0
2018-Feb-10 22:00S 28°11' E 153°33'0 0.0
2018-Feb-10 21:30S 28°11' E 153°33'0 0.0
2018-Feb-09 23:27S 28°11' E 153°33'0 0.0
2018-Feb-09 23:00S 28°11' E 153°33'0 0.0
2018-Feb-09 22:44S 28°11' E 153°33'0 0.6
2018-Feb-09 22:00S 28°11' E 153°33'2 2.3
2018-Feb-09 21:00S 28°13' E 153°35'  
Track history (hours):
 
Tides and Currents Weather Stations Pressure Air Temp Water Temp Dewpoint Dewpoint Depression Visibility Wind Speed Wind Dir Waves Ship Positions

Marine Rescue Pd30

Last reported at 2018-Feb-18 23:27 UTC. Time now 2018-Feb-20 12:14 UTC.
Position S 28°11' E 153°33'.

Length 10 m.

Type: SAR. MMSI: 503558900.

Date/timePositionNaut miles runAvg speedWind from/ knotsBaromVisibWave heightAir tempDewpointWater temp
2018-Feb-18 23:27S 28°11' E 153°33'0 0.0
2018-Feb-17 23:31S 28°11' E 153°33'0 0.0
2018-Feb-17 23:30S 28°11' E 153°33'0 0.0
2018-Feb-17 23:01S 28°11' E 153°33'0 0.8
2018-Feb-17 22:30S 28°11' E 153°33'1 2.6
2018-Feb-17 22:00S 28°12' E 153°34'2 4.9
2018-Feb-17 21:30S 28°14' E 153°33'4 8.2
2018-Feb-17 21:00S 28°10' E 153°33'1 1.2
2018-Feb-17 20:30S 28°11' E 153°33'0 0.0
2018-Feb-16 20:19S 28°11' E 153°33'0 0.0
2018-Feb-16 20:00S 28°11' E 153°33'  
2018-Feb-10 22:04S 28°11' E 153°33'0 0.0
2018-Feb-10 22:00S 28°11' E 153°33'0 0.0
2018-Feb-10 21:30S 28°11' E 153°33'0 0.0
2018-Feb-09 23:27S 28°11' E 153°33'0 0.0
2018-Feb-09 23:00S 28°11' E 153°33'0 0.0
2018-Feb-09 22:44S 28°11' E 153°33'0 0.6
2018-Feb-09 22:00S 28°11' E 153°33'2 2.3
2018-Feb-09 21:00S 28°13' E 153°35'  

Dump ship's entire track history